createdAt,value
2018-08-03T00:00:47.174Z,10.97
2018-08-03T00:03:16.937Z,10.80
2018-08-03T00:05:47.258Z,10.75
2018-08-03T00:08:16.697Z,11.00
2018-08-03T00:10:47.002Z,11.30
2018-08-03T00:13:16.502Z,10.90
2018-08-03T00:15:46.288Z,11.40
2018-08-03T00:18:16.109Z,11.57
2018-08-03T00:20:45.951Z,12.73
2018-08-03T00:23:16.723Z,12.85
2018-08-03T00:25:46.465Z,12.50
2018-08-03T00:28:15.941Z,13.20
2018-08-03T00:30:46.296Z,10.60
2018-08-03T00:33:16.107Z,11.90
2018-08-03T00:35:46.249Z,11.40
2018-08-03T00:38:15.683Z,11.55
2018-08-03T00:40:45.777Z,10.50
2018-08-03T00:43:15.699Z,9.90
2018-08-03T00:45:44.789Z,10.95
2018-08-03T00:48:14.378Z,10.85
2018-08-03T00:50:44.148Z,11.27
2018-08-03T00:53:14.141Z,10.90
2018-08-03T00:55:43.712Z,10.60
2018-08-03T00:58:14.268Z,11.35
2018-08-03T01:00:44.040Z,12.90
2018-08-03T01:03:13.902Z,13.10
2018-08-03T01:08:04.318Z,12.10
2018-08-03T01:10:34.756Z,11.73
2018-08-03T01:13:04.014Z,12.95
2018-08-03T01:15:34.415Z,12.20
2018-08-03T01:18:04.202Z,12.60
2018-08-03T01:20:34.667Z,13.90
2018-08-03T01:23:04.628Z,13.50
2018-08-03T01:25:34.372Z,14.00
2018-08-03T01:28:04.918Z,14.40
2018-08-03T01:30:34.624Z,18.05
2018-08-03T01:33:04.421Z,16.60
2018-08-03T01:35:35.272Z,19.90
2018-08-03T01:38:05.020Z,20.00
2018-08-03T01:40:34.583Z,17.80
2018-08-03T01:43:04.741Z,15.35
2018-08-03T01:45:34.955Z,15.10
2018-08-03T01:48:04.577Z,14.40
2018-08-03T01:50:34.008Z,13.10
2018-08-03T01:53:03.408Z,12.90
2018-08-03T01:55:33.000Z,13.85
2018-08-03T01:58:03.159Z,13.40
2018-08-03T02:00:32.720Z,14.95
2018-08-03T02:03:02.475Z,15.55
2018-08-03T02:05:32.113Z,15.40
2018-08-03T02:10:30.720Z,13.85
2018-08-03T02:13:00.357Z,12.80
2018-08-03T02:15:30.210Z,13.10
2018-08-03T02:18:01.091Z,14.00
2018-08-03T02:20:30.767Z,15.10
2018-08-03T02:23:01.025Z,14.00
2018-08-03T02:25:30.698Z,14.80
2018-08-03T02:28:01.570Z,15.00
2018-08-03T02:30:31.885Z,15.00
2018-08-03T02:33:01.492Z,14.90
2018-08-03T02:45:26.323Z,18.50
2018-08-03T02:47:55.827Z,18.95
2018-08-03T02:50:26.138Z,18.10
2018-08-03T02:52:55.886Z,16.95
2018-08-03T02:55:25.698Z,18.40
2018-08-03T02:57:55.362Z,16.90
2018-08-03T03:02:54.100Z,18.60
2018-08-03T03:12:49.528Z,19.00
2018-08-03T03:17:49.626Z,18.30
2018-08-03T03:22:47.625Z,20.60
2018-08-03T03:27:47.599Z,19.30
2018-08-03T03:32:46.258Z,24.60
2018-08-03T03:35:16.171Z,25.70
2018-08-03T03:37:45.905Z,23.60
2018-08-03T03:40:15.693Z,24.65
2018-08-03T03:42:45.308Z,25.00
2018-08-03T03:47:43.596Z,24.95
2018-08-03T04:02:39.219Z,24.80
2018-08-03T04:05:08.719Z,25.55
2018-08-03T04:07:38.603Z,25.00
2018-08-03T04:10:08.531Z,24.30
2018-08-03T04:12:38.265Z,23.85
2018-08-03T04:15:07.939Z,22.40
2018-08-03T04:20:06.234Z,21.80
2018-08-03T04:22:36.691Z,20.95
2018-08-03T04:27:36.137Z,21.80
2018-08-03T04:30:06.975Z,21.20
2018-08-03T04:32:36.658Z,21.70
2018-08-03T04:35:06.649Z,20.90
2018-08-03T04:37:36.980Z,21.80
2018-08-03T04:40:07.776Z,22.80
2018-08-03T04:42:38.602Z,22.70
2018-08-03T04:45:08.360Z,27.60
2018-08-03T04:47:39.422Z,29.70
2018-08-03T04:50:08.955Z,28.60
2018-08-03T04:52:39.226Z,28.60
2018-08-03T04:55:09.864Z,29.75
2018-08-03T04:57:40.472Z,27.93
2018-08-03T05:06:57.967Z,30.85
2018-08-03T05:09:27.556Z,32.00
2018-08-03T05:11:57.413Z,39.15
2018-08-03T05:14:27.570Z,36.70
2018-08-03T05:16:57.231Z,34.50
2018-08-03T05:19:27.092Z,33.40
2018-08-03T05:21:56.982Z,34.60
2018-08-03T05:24:26.921Z,35.87
2018-08-03T05:26:56.323Z,36.20
2018-08-03T05:29:26.012Z,33.47
2018-08-03T05:31:55.721Z,34.03
2018-08-03T05:34:26.167Z,35.23
2018-08-03T05:36:57.216Z,33.17
2018-08-03T05:39:27.994Z,32.50
2018-08-03T05:41:57.781Z,31.70
2018-08-03T05:44:27.679Z,31.77
2018-08-03T05:46:58.398Z,36.73
2018-08-03T05:49:28.646Z,36.70
2018-08-03T05:51:59.787Z,37.33
2018-08-03T05:54:32.835Z,36.65
2018-08-03T05:57:02.803Z,33.83
2018-08-03T05:59:33.287Z,33.37
2018-08-03T06:02:03.947Z,31.93
2018-08-03T06:04:33.673Z,33.03
2018-08-03T06:07:04.101Z,31.57
2018-08-03T06:09:35.368Z,30.60
2018-08-03T06:12:05.067Z,32.40
2018-08-03T06:14:34.809Z,34.17
2018-08-03T06:17:05.401Z,31.20
2018-08-03T06:19:35.825Z,38.15
2018-08-03T06:22:05.524Z,35.10
2018-08-03T06:24:35.258Z,35.20
2018-08-03T06:27:05.750Z,34.50
2018-08-03T06:29:37.063Z,33.87
2018-08-03T06:32:07.178Z,31.80
2018-08-03T06:34:36.702Z,34.00
2018-08-03T06:37:07.246Z,33.77
2018-08-03T06:39:40.630Z,33.20
2018-08-03T06:42:10.706Z,32.97
2018-08-03T06:44:40.685Z,32.07
2018-08-03T06:47:16.617Z,33.23
2018-08-03T06:49:47.292Z,34.50
2018-08-03T06:52:17.695Z,30.67
2018-08-03T06:54:47.865Z,29.27
2018-08-03T06:57:16.990Z,30.27
2018-08-03T06:59:48.212Z,33.30
2018-08-03T07:02:17.786Z,27.43
2018-08-03T07:04:48.863Z,26.60
2018-08-03T07:07:18.436Z,26.75
2018-08-03T07:09:48.108Z,28.10
2018-08-03T07:12:18.655Z,28.37
2018-08-03T07:14:48.792Z,27.67
2018-08-03T07:17:19.278Z,29.13
2018-08-03T07:19:48.959Z,25.83
2018-08-03T07:22:19.158Z,26.20
2018-08-03T07:24:49.084Z,24.53
2018-08-03T07:27:18.855Z,24.60
2018-08-03T07:29:48.412Z,23.93
2018-08-03T07:32:18.125Z,24.70
2018-08-03T07:34:49.142Z,21.57
2018-08-03T07:37:18.858Z,22.43
2018-08-03T07:39:48.727Z,20.23
2018-08-03T07:42:18.727Z,21.03
2018-08-03T07:44:48.504Z,22.50
2018-08-03T07:47:18.263Z,21.93
2018-08-03T07:49:48.490Z,20.60
2018-08-03T07:52:18.759Z,20.57
2018-08-03T07:57:51.277Z,22.07
2018-08-03T08:00:20.703Z,20.67
2018-08-03T08:02:50.141Z,19.13
2018-08-03T08:05:19.755Z,19.93
2018-08-03T08:07:49.289Z,18.53
2018-08-03T08:10:19.073Z,18.67
2018-08-03T08:12:48.914Z,19.67
2018-08-03T08:15:18.927Z,18.40
2018-08-03T08:17:48.355Z,20.20
2018-08-03T08:20:17.991Z,20.77
2018-08-03T08:22:47.640Z,18.00
2018-08-03T08:25:17.225Z,19.33
2018-08-03T08:27:46.773Z,16.47
2018-08-03T08:30:16.344Z,16.77
2018-08-03T08:32:46.061Z,19.07
2018-08-03T08:35:15.663Z,17.53
2018-08-03T08:37:45.167Z,14.40
2018-08-03T08:40:14.943Z,14.50
2018-08-03T08:42:44.762Z,15.23
2018-08-03T08:45:14.289Z,10.70
2018-08-03T08:47:43.888Z,9.30
2018-08-03T08:50:13.639Z,10.87
2018-08-03T08:52:43.163Z,12.93
2018-08-03T08:55:12.657Z,13.83
2018-08-03T08:57:42.183Z,12.30
2018-08-03T09:00:11.668Z,12.45
2018-08-03T09:02:43.288Z,10.97
2018-08-03T09:05:12.913Z,10.75
2018-08-03T09:07:42.622Z,9.83
2018-08-03T09:10:12.058Z,16.20
2018-08-03T09:12:41.651Z,9.53
2018-08-03T09:15:10.998Z,11.78
2018-08-03T09:17:40.417Z,11.30
2018-08-03T09:20:09.861Z,13.43
2018-08-03T09:22:39.484Z,11.55
2018-08-03T09:25:08.977Z,12.13
2018-08-03T09:27:38.507Z,12.90
2018-08-03T09:30:09.424Z,11.50
2018-08-03T09:32:38.980Z,11.10
2018-08-03T09:35:08.425Z,9.48
2018-08-03T09:37:38.103Z,13.45
2018-08-03T09:40:08.024Z,11.78
2018-08-03T09:42:37.566Z,14.05
2018-08-03T09:45:07.097Z,9.95
2018-08-03T09:47:36.534Z,12.33
2018-08-03T09:50:06.218Z,10.68
2018-08-03T09:52:35.769Z,10.88
2018-08-03T09:55:05.344Z,10.80
2018-08-03T09:57:34.846Z,12.90
2018-08-03T10:00:04.380Z,12.23
2018-08-03T10:02:34.205Z,12.85
2018-08-03T10:05:03.715Z,10.75
2018-08-03T10:07:33.256Z,9.68
2018-08-03T10:10:02.774Z,13.72
2018-08-03T10:12:32.275Z,14.78
2018-08-03T10:15:01.786Z,10.88
2018-08-03T10:17:31.177Z,9.40
2018-08-03T10:20:00.571Z,12.00
2018-08-03T10:22:29.647Z,11.38
2018-08-03T10:24:59.035Z,12.58
2018-08-03T10:27:28.496Z,16.37
2018-08-03T10:29:58.277Z,12.75
2018-08-03T10:32:27.752Z,12.35
2018-08-03T10:34:57.634Z,13.22
2018-08-03T10:37:27.290Z,14.43
2018-08-03T10:39:56.945Z,13.45
2018-08-03T10:42:26.567Z,13.85
2018-08-03T10:44:56.172Z,11.45
2018-08-03T10:47:25.707Z,13.88
2018-08-03T10:49:55.204Z,15.70
2018-08-03T10:52:24.593Z,13.13
2018-08-03T10:54:54.600Z,14.70
2018-08-03T10:57:24.065Z,11.93
2018-08-03T10:59:53.551Z,11.65
2018-08-03T11:02:22.974Z,12.93
2018-08-03T11:04:52.370Z,14.63
2018-08-03T11:07:21.769Z,12.25
2018-08-03T11:09:51.448Z,11.55
2018-08-03T11:12:21.012Z,15.15
2018-08-03T11:14:50.454Z,9.88
2018-08-03T11:17:19.983Z,14.93
2018-08-03T11:19:49.432Z,11.63
2018-08-03T11:22:18.944Z,16.57
2018-08-03T11:24:48.512Z,13.78
2018-08-03T11:27:18.270Z,13.18
2018-08-03T11:29:48.067Z,12.05
2018-08-03T11:32:17.487Z,17.52
2018-08-03T11:34:46.996Z,13.30
2018-08-03T11:37:16.702Z,12.40
2018-08-03T11:39:46.283Z,11.97
2018-08-03T11:42:15.774Z,9.38
2018-08-03T11:44:45.892Z,12.47
2018-08-03T11:47:15.663Z,13.93
2018-08-03T11:49:45.129Z,12.55
2018-08-03T11:52:14.578Z,10.53
2018-08-03T11:54:43.944Z,16.00
2018-08-03T11:57:13.502Z,10.72
2018-08-03T11:59:43.339Z,14.65
2018-08-03T12:02:12.796Z,11.20
2018-08-03T12:04:42.511Z,9.78
2018-08-03T12:07:12.100Z,10.93
2018-08-03T12:09:41.656Z,10.68
2018-08-03T12:12:11.069Z,12.00
2018-08-03T12:14:40.853Z,12.53
2018-08-03T12:17:10.437Z,10.65
2018-08-03T12:19:39.965Z,9.60
2018-08-03T12:22:09.034Z,8.43
2018-08-03T12:24:38.353Z,9.53
2018-08-03T12:27:07.928Z,12.43
2018-08-03T12:29:37.515Z,9.73
2018-08-03T12:32:07.319Z,10.58
2018-08-03T12:34:36.971Z,9.33
2018-08-03T12:37:06.574Z,11.57
2018-08-03T12:39:36.174Z,13.05
2018-08-03T12:42:05.721Z,11.90
2018-08-03T12:44:35.139Z,10.85
2018-08-03T12:47:04.533Z,11.90
2018-08-03T12:49:33.964Z,10.85
2018-08-03T12:52:03.451Z,9.53
2018-08-03T12:54:33.265Z,9.65
2018-08-03T12:57:02.747Z,12.82
2018-08-03T12:59:32.354Z,16.37
2018-08-03T13:02:01.849Z,11.30
2018-08-03T13:04:31.231Z,9.15
2018-08-03T13:07:00.887Z,11.95
2018-08-03T13:09:30.369Z,10.08
2018-08-03T13:11:59.832Z,10.35
2018-08-03T13:14:29.246Z,10.55
2018-08-03T13:16:58.779Z,10.15
2018-08-03T13:19:28.303Z,13.65
2018-08-03T13:21:57.897Z,10.60
2018-08-03T13:24:27.600Z,11.90
2018-08-03T13:26:57.218Z,14.43
2018-08-03T13:29:26.618Z,13.03
2018-08-03T13:31:56.164Z,14.33
2018-08-03T13:34:25.578Z,12.40
2018-08-03T13:36:55.068Z,9.10
2018-08-03T13:39:24.750Z,11.43
2018-08-03T13:41:54.094Z,10.08
2018-08-03T13:44:23.555Z,12.80
2018-08-03T13:46:52.963Z,11.25
2018-08-03T13:49:22.480Z,9.40
2018-08-03T13:51:52.002Z,9.80
2018-08-03T13:54:21.419Z,11.75
2018-08-03T13:56:50.772Z,11.40
2018-08-03T13:59:20.228Z,11.93
2018-08-03T14:02:01.533Z,13.78
2018-08-03T14:04:31.011Z,10.60
2018-08-03T14:07:00.709Z,7.08
2018-08-03T14:09:30.413Z,13.13
2018-08-03T14:11:59.979Z,12.90
2018-08-03T14:14:29.637Z,12.98
2018-08-03T14:16:59.302Z,8.35
2018-08-03T14:19:29.092Z,8.15
2018-08-03T14:21:58.632Z,6.80
2018-08-03T14:24:28.284Z,8.13
2018-08-03T14:26:57.903Z,8.75
2018-08-03T14:29:27.424Z,5.40
2018-08-03T14:31:56.982Z,7.58
2018-08-03T14:34:26.356Z,7.17
2018-08-03T14:36:56.101Z,10.75
2018-08-03T14:39:25.606Z,7.65
2018-08-03T14:41:55.224Z,12.45
2018-08-03T14:44:24.909Z,7.12
2018-08-03T14:46:54.494Z,7.35
2018-08-03T14:49:24.218Z,7.65
2018-08-03T14:51:54.610Z,7.58
2018-08-03T14:54:24.114Z,11.15
2018-08-03T14:56:53.515Z,8.53
2018-08-03T14:59:23.138Z,7.85
2018-08-03T15:01:52.620Z,7.85
2018-08-03T15:04:21.959Z,7.47
2018-08-03T15:06:51.474Z,6.75
2018-08-03T15:09:21.088Z,8.65
2018-08-03T15:11:50.616Z,9.28
2018-08-03T15:14:20.206Z,8.95
2018-08-03T15:16:49.879Z,11.55
2018-08-03T15:19:19.363Z,9.30
2018-08-03T15:21:48.930Z,9.38
2018-08-03T15:24:18.362Z,11.68
2018-08-03T15:26:48.005Z,8.90
2018-08-03T15:29:17.568Z,11.33
2018-08-03T15:31:47.047Z,10.50
2018-08-03T15:34:16.554Z,9.68
2018-08-03T15:36:46.163Z,9.98
2018-08-03T15:39:15.590Z,6.78
2018-08-03T15:41:45.252Z,10.60
2018-08-03T15:44:14.860Z,7.40
2018-08-03T15:46:44.394Z,6.53
2018-08-03T15:49:13.807Z,7.00
2018-08-03T15:51:43.290Z,7.95
2018-08-03T15:54:12.626Z,6.55
2018-08-03T15:56:42.026Z,8.40
2018-08-03T15:59:11.482Z,8.75
2018-08-03T16:01:40.890Z,8.93
2018-08-03T16:04:11.422Z,7.92
2018-08-03T16:06:42.801Z,7.33
2018-08-03T16:09:12.487Z,8.28
2018-08-03T16:11:42.108Z,11.20
2018-08-03T16:14:11.546Z,7.87
2018-08-03T16:16:40.973Z,4.30
2018-08-03T16:19:10.641Z,5.12
2018-08-03T16:21:40.029Z,6.42
2018-08-03T16:24:09.703Z,10.28
2018-08-03T16:26:39.174Z,5.78
2018-08-03T16:29:08.696Z,4.95
2018-08-03T16:31:38.321Z,7.42
2018-08-03T16:34:07.855Z,7.20
2018-08-03T16:36:37.263Z,6.12
2018-08-03T16:39:08.835Z,5.92
2018-08-03T16:41:38.467Z,5.62
2018-08-03T16:44:07.903Z,4.35
2018-08-03T16:46:37.401Z,2.65
2018-08-03T16:49:06.901Z,4.62
2018-08-03T16:51:36.243Z,4.37
2018-08-03T16:54:05.648Z,4.97
2018-08-03T16:56:34.971Z,3.17
2018-08-03T16:59:04.515Z,4.87
2018-08-03T17:01:33.955Z,2.65
2018-08-03T17:04:03.508Z,5.37
2018-08-03T17:06:33.076Z,3.85
2018-08-03T17:09:02.704Z,4.55
2018-08-03T17:11:32.166Z,6.40
2018-08-03T17:14:01.635Z,2.87
2018-08-03T17:16:30.968Z,5.80
2018-08-03T17:19:00.401Z,4.20
2018-08-03T17:21:29.780Z,4.10
2018-08-03T17:23:59.335Z,4.28
2018-08-03T17:26:28.856Z,3.77
2018-08-03T17:28:58.144Z,6.60
2018-08-03T17:31:27.450Z,4.83
2018-08-03T17:33:57.206Z,7.25
2018-08-03T17:36:26.734Z,6.10
2018-08-03T17:38:56.196Z,5.67
2018-08-03T17:41:25.673Z,3.00
2018-08-03T17:43:55.073Z,4.40
2018-08-03T17:46:24.666Z,3.27
2018-08-03T17:48:54.111Z,2.67
2018-08-03T17:51:23.599Z,5.10
2018-08-03T17:53:52.998Z,2.75
2018-08-03T17:56:22.267Z,3.87
2018-08-03T17:58:51.709Z,4.03
2018-08-03T18:01:21.255Z,5.67
2018-08-03T18:03:50.964Z,5.20
2018-08-03T18:06:20.685Z,3.47
2018-08-03T18:08:50.724Z,5.03
2018-08-03T18:11:20.420Z,4.40
2018-08-03T18:13:49.916Z,4.10
2018-08-03T18:16:19.395Z,3.77
2018-08-03T18:18:49.073Z,3.10
2018-08-03T18:21:18.550Z,4.70
2018-08-03T18:23:48.241Z,2.87
2018-08-03T18:26:17.602Z,3.50
2018-08-03T18:28:46.971Z,6.93
2018-08-03T18:31:16.733Z,3.53
2018-08-03T18:33:46.116Z,5.13
2018-08-03T18:36:15.683Z,4.60
2018-08-03T18:38:45.060Z,5.60
2018-08-03T18:41:14.431Z,6.13
2018-08-03T18:43:43.917Z,7.10
2018-08-03T18:46:13.311Z,4.37
2018-08-03T18:48:42.719Z,3.70
2018-08-03T18:51:12.259Z,7.13
2018-08-03T18:53:41.991Z,7.20
2018-08-03T18:56:11.661Z,8.30
2018-08-03T18:58:41.111Z,7.37
2018-08-03T19:01:10.389Z,2.60
2018-08-03T19:03:39.854Z,2.97
2018-08-03T19:06:09.286Z,4.93
2018-08-03T19:08:39.032Z,6.90
2018-08-03T19:11:08.545Z,4.33
2018-08-03T19:13:38.548Z,6.30
2018-08-03T19:16:10.182Z,8.13
2018-08-03T19:18:41.530Z,7.17
2018-08-03T19:21:10.928Z,13.30
2018-08-03T19:23:40.315Z,9.73
2018-08-03T19:26:09.651Z,6.57
2018-08-03T19:28:39.173Z,6.90
2018-08-03T19:31:08.566Z,3.87
2018-08-03T19:33:38.182Z,6.10
2018-08-03T19:36:07.643Z,3.50
2018-08-03T19:38:37.045Z,3.90
2018-08-03T19:41:06.505Z,6.23
2018-08-03T19:43:35.906Z,4.30
2018-08-03T19:46:05.632Z,7.10
2018-08-03T19:48:35.108Z,4.80
2018-08-03T19:51:04.448Z,5.47
2018-08-03T19:53:33.742Z,4.87
2018-08-03T19:56:03.173Z,5.00
2018-08-03T19:58:32.680Z,7.07
2018-08-03T20:01:02.332Z,9.13
2018-08-03T20:03:31.958Z,9.70
2018-08-03T20:06:01.404Z,6.33
2018-08-03T20:08:30.787Z,11.30
2018-08-03T20:11:00.236Z,10.93
2018-08-03T20:13:29.705Z,9.70
2018-08-03T20:15:59.436Z,7.53
2018-08-03T20:18:28.878Z,7.47
2018-08-03T20:20:58.347Z,13.03
2018-08-03T20:23:27.735Z,12.80
2018-08-03T20:25:57.402Z,7.80
2018-08-03T20:28:26.835Z,9.13
2018-08-03T20:30:56.552Z,9.27
2018-08-03T20:33:26.002Z,7.00
2018-08-03T20:35:55.483Z,7.60
2018-08-03T20:38:25.243Z,5.90
2018-08-03T20:40:54.903Z,6.97
2018-08-03T20:43:24.314Z,5.57
2018-08-03T20:45:53.825Z,4.60
2018-08-03T20:48:23.187Z,7.97
2018-08-03T20:50:52.697Z,4.70
2018-08-03T20:53:22.167Z,5.33
2018-08-03T20:55:51.752Z,5.93
2018-08-03T20:58:21.344Z,4.10
2018-08-03T21:00:50.920Z,7.17
2018-08-03T21:03:20.427Z,3.50
2018-08-03T21:05:49.847Z,5.43
2018-08-03T21:08:19.363Z,7.30
2018-08-03T21:10:48.974Z,5.85
2018-08-03T21:13:18.447Z,6.37
2018-08-03T21:15:47.869Z,8.20
2018-08-03T21:18:17.256Z,5.50
2018-08-03T21:20:46.641Z,7.27
2018-08-03T21:23:15.991Z,5.70
2018-08-03T21:25:45.449Z,5.00
2018-08-03T21:28:15.254Z,6.13
2018-08-03T21:30:44.803Z,9.53
2018-08-03T21:33:14.422Z,7.43
2018-08-03T21:35:43.839Z,7.13
2018-08-03T21:38:13.431Z,5.13
2018-08-03T21:40:42.872Z,5.80
2018-08-03T21:43:12.362Z,4.70
2018-08-03T21:45:41.774Z,5.57
2018-08-03T21:48:11.193Z,10.20
2018-08-03T21:50:40.617Z,5.30
2018-08-03T21:53:10.169Z,6.33
2018-08-03T21:55:39.651Z,7.57
2018-08-03T21:58:09.059Z,6.27
2018-08-03T22:00:38.594Z,6.43
2018-08-03T22:03:08.282Z,9.15
2018-08-03T22:05:37.797Z,11.43
2018-08-03T22:08:07.197Z,10.70
2018-08-03T22:10:36.735Z,7.35
2018-08-03T22:13:06.095Z,5.70
2018-08-03T22:15:35.665Z,7.95
2018-08-03T22:18:05.300Z,9.05
2018-08-03T22:20:35.166Z,9.67
2018-08-03T22:23:05.130Z,6.93
2018-08-03T22:25:34.719Z,8.00
2018-08-03T22:28:04.209Z,7.33
2018-08-03T22:30:33.839Z,7.40
2018-08-03T22:33:03.451Z,9.03
2018-08-03T22:35:33.015Z,8.43
2018-08-03T22:38:02.383Z,8.33
2018-08-03T22:40:31.802Z,6.70
2018-08-03T22:43:01.275Z,7.00
2018-08-03T22:45:30.891Z,8.53
2018-08-03T22:48:00.498Z,10.00
2018-08-03T22:50:29.868Z,9.75
2018-08-03T22:52:59.342Z,8.07
2018-08-03T22:55:28.779Z,11.90
2018-08-03T22:57:58.198Z,7.40
2018-08-03T23:00:27.601Z,7.23
2018-08-03T23:02:57.136Z,6.50
2018-08-03T23:05:26.424Z,6.80
2018-08-03T23:07:55.965Z,7.13
2018-08-03T23:10:25.498Z,7.07
2018-08-03T23:12:55.282Z,7.17
2018-08-03T23:15:24.934Z,9.67
2018-08-03T23:17:54.520Z,7.70
2018-08-03T23:20:24.054Z,9.57
2018-08-03T23:22:53.562Z,7.60
2018-08-03T23:25:23.027Z,7.63
2018-08-03T23:27:52.419Z,6.63
2018-08-03T23:30:21.823Z,7.80
2018-08-03T23:32:51.344Z,7.23
2018-08-03T23:35:20.781Z,7.60
2018-08-03T23:37:50.274Z,8.07
2018-08-03T23:40:19.765Z,8.13
2018-08-03T23:42:49.438Z,9.43
2018-08-03T23:45:18.816Z,9.00
2018-08-03T23:47:48.216Z,9.30
2018-08-03T23:50:19.193Z,9.73
2018-08-03T23:52:49.508Z,10.53
2018-08-03T23:55:19.306Z,9.90
2018-08-03T23:57:48.881Z,9.77
